Aslo, Minnesota
Current Conditions -  °F | °C
As of 4:53 AM on Sunday 23 Nov 2014 (Local Time) from KMZH Reporting Station
Moderate Fog Moderate Fog  
Wind Chill:   Ceiling: 200
Heat Index:   Visibility: 0.5mi
Dew Point:   Wind: 0mph
Humidity: 93%   Direction: NA
Pressure: 29.38"   Gusts: NA
Location:  46.2004°N, 92.675°W
Report Text: KMZH 231053Z AUTO 00000KT 1/2SM FG OVC002 04/03 A2938 RMK AO2
Loading
Personal Weather Stations






























Interactive Weather Map New forecast layout! Learn more

10-Day Weather Forecast

Advertisements
Track Severe Weather on mobile